createdAt,value
2022-10-04T00:05:42.331Z,72.88
2022-10-04T00:15:50.408Z,73.62
2022-10-04T00:25:55.593Z,73.07
2022-10-04T00:35:57.721Z,73.13
2022-10-04T00:46:05.951Z,73.59
2022-10-04T00:56:31.669Z,74.06
2022-10-04T01:06:36.499Z,75.13
2022-10-04T01:16:39.035Z,74.53
2022-10-04T01:26:43.872Z,74.05
2022-10-04T01:36:47.619Z,74.51
2022-10-04T01:46:52.620Z,74.64
2022-10-04T01:57:17.226Z,74.60
2022-10-04T02:07:20.702Z,73.09
2022-10-04T02:17:30.125Z,73.00
2022-10-04T02:27:32.453Z,72.71
2022-10-04T02:37:35.288Z,73.37
2022-10-04T02:47:45.840Z,73.00
2022-10-04T02:57:50.057Z,72.89
2022-10-04T03:07:53.357Z,72.39
2022-10-04T03:17:55.629Z,72.80
2022-10-04T03:28:02.174Z,73.33
2022-10-04T03:38:11.503Z,73.99
2022-10-04T03:48:18.175Z,74.48
2022-10-04T03:58:21.062Z,74.42
2022-10-04T04:08:23.753Z,74.43
2022-10-04T04:18:32.382Z,75.01
2022-10-04T04:28:42.262Z,74.88
2022-10-04T04:39:03.307Z,74.68
2022-10-04T04:49:05.983Z,75.44
2022-10-04T04:59:08.816Z,75.96
2022-10-04T05:09:24.628Z,76.02
2022-10-04T05:19:37.288Z,76.03
2022-10-04T05:29:46.863Z,75.70
2022-10-04T05:40:03.851Z,75.34
2022-10-04T05:50:06.216Z,74.76
2022-10-04T06:00:21.040Z,74.53
2022-10-04T06:10:45.440Z,73.79
2022-10-04T06:21:13.043Z,72.63
2022-10-04T06:31:46.773Z,72.80
2022-10-04T06:42:07.530Z,71.23
2022-10-04T06:52:25.482Z,71.22
2022-10-04T07:02:42.236Z,70.65
2022-10-04T07:12:53.998Z,70.59
2022-10-04T07:23:06.137Z,69.54
2022-10-04T07:33:14.084Z,68.85
2022-10-04T07:43:30.661Z,68.15
2022-10-04T07:53:55.683Z,69.41
2022-10-04T08:04:11.284Z,68.11
2022-10-04T08:14:44.371Z,68.00
2022-10-04T08:25:08.432Z,68.57
2022-10-04T08:35:29.430Z,68.57
2022-10-04T08:45:44.364Z,63.92
2022-10-04T08:55:49.790Z,62.92
2022-10-04T09:06:13.740Z,60.11
2022-10-04T09:16:22.381Z,58.53
2022-10-04T09:26:38.428Z,60.78
2022-10-04T09:36:46.655Z,59.41
2022-10-04T09:47:14.410Z,58.72
2022-10-04T09:57:58.466Z,59.28
2022-10-04T10:08:28.403Z,59.38
2022-10-04T10:18:59.422Z,56.21
2022-10-04T10:29:35.528Z,56.06
2022-10-04T10:40:02.388Z,55.35
2022-10-04T10:50:28.496Z,57.80
2022-10-04T11:00:51.858Z,57.51
2022-10-04T11:11:12.022Z,56.26
2022-10-04T11:21:29.128Z,53.34
2022-10-04T11:31:46.002Z,53.25
2022-10-04T11:41:57.175Z,54.41
2022-10-04T11:52:49.541Z,54.57
2022-10-04T12:03:18.892Z,54.85
2022-10-04T12:13:59.341Z,53.47
2022-10-04T12:24:27.150Z,51.99
2022-10-04T12:34:45.424Z,50.18
2022-10-04T12:44:57.219Z,51.93
2022-10-04T12:55:40.302Z,51.52
2022-10-04T13:06:03.082Z,51.60
2022-10-04T13:26:35.161Z,55.25
2022-10-04T13:36:46.370Z,54.67
2022-10-04T13:46:59.099Z,52.82
2022-10-04T13:57:18.274Z,53.34
2022-10-04T14:07:38.466Z,55.01
2022-10-04T14:17:46.415Z,52.60
2022-10-04T14:28:06.847Z,53.38
2022-10-04T14:38:14.896Z,55.67
2022-10-04T14:48:56.118Z,55.79
2022-10-04T14:59:35.615Z,58.30
2022-10-04T15:10:01.209Z,59.31
2022-10-04T15:20:03.430Z,60.93
2022-10-04T15:30:20.545Z,59.54
2022-10-04T15:40:34.933Z,62.43
2022-10-04T15:51:12.115Z,65.23
2022-10-04T16:01:27.409Z,67.39
2022-10-04T16:11:47.216Z,69.39
2022-10-04T16:22:17.531Z,69.87
2022-10-04T16:32:39.014Z,71.47
2022-10-04T16:42:49.738Z,72.35
2022-10-04T16:53:24.083Z,73.85
2022-10-04T17:03:35.235Z,74.91
2022-10-04T17:14:01.588Z,76.47
2022-10-04T17:24:30.275Z,77.71
2022-10-04T17:34:59.680Z,79.00
2022-10-04T17:45:25.424Z,79.20
2022-10-04T17:55:58.770Z,77.93
2022-10-04T18:06:26.902Z,78.47
2022-10-04T18:16:49.003Z,78.93
2022-10-04T18:27:05.115Z,78.35
2022-10-04T18:37:28.665Z,78.84
2022-10-04T18:47:39.622Z,79.53
2022-10-04T18:58:06.394Z,79.67
2022-10-04T19:08:39.798Z,80.77
2022-10-04T19:18:57.901Z,80.80
2022-10-04T19:29:26.135Z,80.54
2022-10-04T19:39:35.603Z,82.61
2022-10-04T19:49:44.180Z,81.77
2022-10-04T19:59:48.575Z,80.29
2022-10-04T20:10:15.558Z,81.19
2022-10-04T20:20:43.470Z,83.28
2022-10-04T20:40:40.497Z,82.60
2022-10-04T20:50:43.468Z,84.66
2022-10-04T21:00:57.429Z,84.12
2022-10-04T21:11:08.862Z,83.37
2022-10-04T21:21:14.748Z,82.93
2022-10-04T21:31:17.001Z,82.88
2022-10-04T21:41:19.078Z,82.06
2022-10-04T21:51:21.240Z,81.46
2022-10-04T22:01:23.721Z,81.03
2022-10-04T22:11:25.972Z,81.57
2022-10-04T22:21:28.118Z,82.22
2022-10-04T22:31:30.330Z,81.79
2022-10-04T22:41:36.052Z,83.34
2022-10-04T22:51:40.489Z,81.86
2022-10-04T23:01:43.805Z,81.97
2022-10-04T23:11:46.687Z,81.47
2022-10-04T23:21:50.025Z,82.31
2022-10-04T23:31:52.851Z,82.74
2022-10-04T23:41:56.947Z,83.06
2022-10-04T23:52:02.839Z,83.13
